Time;durP1;ratioP1;P1;durP2;ratioP2;P2;SDS_P1;SDS_P2;PMS_P1;PMS_P2;Temp;Humidity;BMP_temperature;BMP_pressure;BME280_temperature;BME280_humidity;BME280_pressure;Samples;Min_cycle;Max_cycle;Signal;HPM_P1;HPM_P2
2022/08/07 00:00:36;;;;;;;5.00;3.10;;;;;;;;;;5033689;28;20183;-65
2022/08/07 00:03:02;;;;;;;3.77;2.93;;;;;;;;;;5036179;28;20199;-66
2022/08/07 00:05:28;;;;;;;4.97;3.13;;;;;;;;;;5034877;28;20562;-66
2022/08/07 00:07:55;;;;;;;4.97;3.30;;;;;;;;;;5036073;28;20187;-66
2022/08/07 00:10:24;;;;;;;6.10;3.10;;;;;;;;;;5036116;28;20242;-66
2022/08/07 00:12:50;;;;;;;3.87;3.43;;;;;;;;;;5036283;28;20213;-66
2022/08/07 00:15:16;;;;;;;5.80;3.60;;;;;;;;;;5036306;28;20258;-66
2022/08/07 00:17:43;;;;;;;6.33;3.40;;;;;;;;;;5035988;28;20183;-65
2022/08/07 00:20:09;;;;;;;5.97;3.27;;;;;;;;;;5035907;28;20253;-66
2022/08/07 00:22:35;;;;;;;7.07;3.73;;;;;;;;;;5034642;28;20276;-65
2022/08/07 00:25:08;;;;;;;5.10;3.77;;;;;;;;;;5036217;28;20183;-66
2022/08/07 00:27:34;;;;;;;6.23;3.70;;;;;;;;;;5034703;28;20179;-66
2022/08/07 00:30:00;;;;;;;5.40;3.73;;;;;;;;;;5034408;28;20234;-66
2022/08/07 00:32:26;;;;;;;4.10;2.97;;;;;;;;;;5035371;28;20218;-66
2022/08/07 00:34:52;;;;;;;7.77;4.10;;;;;;;;;;5035822;28;20179;-66
2022/08/07 00:37:19;;;;;;;7.73;4.13;;;;;;;;;;5035622;28;20178;-66
2022/08/07 00:39:45;;;;;;;5.23;3.63;;;;;;;;;;5034888;28;20187;-66
2022/08/07 00:42:11;;;;;;;3.57;2.90;;;;;;;;;;5034488;28;20559;-66
2022/08/07 00:44:37;;;;;;;6.50;3.37;;;;;;;;;;5035560;28;20262;-66
2022/08/07 00:47:04;;;;;;;4.77;3.50;;;;;;;;;;5034106;28;20233;-66
2022/08/07 00:49:30;;;;;;;5.20;3.57;;;;;;;;;;5034022;28;20252;-66
2022/08/07 00:51:56;;;;;;;4.87;3.57;;;;;;;;;;5035336;28;20199;-66
2022/08/07 00:54:22;;;;;;;5.07;3.73;;;;;;;;;;5035121;28;20183;-66
2022/08/07 00:56:48;;;;;;;8.20;3.67;;;;;;;;;;5035316;28;20179;-65
2022/08/07 00:59:14;;;;;;;7.47;4.13;;;;;;;;;;5033700;28;20365;-66
2022/08/07 01:01:40;;;;;;;7.03;3.77;;;;;;;;;;5033672;28;20297;-65
2022/08/07 01:04:07;;;;;;;6.60;3.67;;;;;;;;;;5033596;28;20187;-66
2022/08/07 01:06:33;;;;;;;5.20;3.80;;;;;;;;;;5035383;28;20624;-66
2022/08/07 01:09:00;;;;;;;7.90;3.60;;;;;;;;;;5033394;28;20203;-65
2022/08/07 01:11:26;;;;;;;4.83;4.13;;;;;;;;;;5034854;28;20617;-66
2022/08/07 01:13:52;;;;;;;7.90;4.00;;;;;;;;;;5035162;28;20213;-66
2022/08/07 01:16:18;;;;;;;8.07;4.20;;;;;;;;;;5034916;28;20596;-66
2022/08/07 01:18:44;;;;;;;6.07;3.47;;;;;;;;;;5034874;28;20190;-63
2022/08/07 01:21:15;;;;;;;4.07;3.67;;;;;;;;;;5034566;28;20224;-65
2022/08/07 01:23:42;;;;;;;4.67;3.77;;;;;;;;;;5033270;28;20178;-66
2022/08/07 01:26:09;;;;;;;6.43;3.60;;;;;;;;;;5034554;28;20178;-66
2022/08/07 01:28:36;;;;;;;5.10;3.83;;;;;;;;;;5033302;28;20247;-66
2022/08/07 01:31:02;;;;;;;4.73;3.90;;;;;;;;;;5034292;28;20179;-66
2022/08/07 01:33:28;;;;;;;6.23;3.93;;;;;;;;;;5034427;28;20205;-66
2022/08/07 01:35:55;;;;;;;6.93;3.93;;;;;;;;;;5066052;22;20234;-72
2022/08/07 01:38:22;;;;;;;6.70;3.83;;;;;;;;;;5036188;28;20285;-71
2022/08/07 01:40:48;;;;;;;5.30;3.73;;;;;;;;;;5053201;28;20209;-73
2022/08/07 01:43:15;;;;;;;6.83;4.33;;;;;;;;;;5051004;28;20187;-73
2022/08/07 01:45:41;;;;;;;5.17;3.73;;;;;;;;;;5047564;28;20277;-74
2022/08/07 01:48:07;;;;;;;6.47;4.30;;;;;;;;;;5038968;28;20662;-73
2022/08/07 01:50:36;;;;;;;4.90;3.87;;;;;;;;;;5035075;28;20171;-73
2022/08/07 01:53:02;;;;;;;4.87;3.87;;;;;;;;;;5034347;28;20175;-72
2022/08/07 01:55:32;;;;;;;5.87;3.93;;;;;;;;;;5035204;28;20253;-72
2022/08/07 01:57:59;;;;;;;6.57;4.03;;;;;;;;;;5033704;28;20233;-73
2022/08/07 02:00:27;;;;;;;4.20;3.80;;;;;;;;;;5035489;28;20179;-72
2022/08/07 02:02:54;;;;;;;5.70;3.80;;;;;;;;;;5035142;28;20262;-72
2022/08/07 02:05:25;;;;;;;7.27;3.57;;;;;;;;;;5035294;28;20206;-72
2022/08/07 02:07:53;;;;;;;7.60;3.93;;;;;;;;;;5039490;28;20190;-73
2022/08/07 02:10:22;;;;;;;6.10;3.83;;;;;;;;;;5044777;28;20202;-72
2022/08/07 02:12:49;;;;;;;5.23;3.97;;;;;;;;;;5044425;28;20187;-73
2022/08/07 02:15:15;;;;;;;6.53;4.37;;;;;;;;;;5045647;28;20218;-72
2022/08/07 02:17:43;;;;;;;4.33;3.93;;;;;;;;;;5039481;28;20175;-72
2022/08/07 02:20:10;;;;;;;5.60;4.10;;;;;;;;;;5035250;28;20190;-72
2022/08/07 02:22:37;;;;;;;4.50;3.90;;;;;;;;;;5033915;28;20183;-72
2022/08/07 02:25:05;;;;;;;5.77;4.67;;;;;;;;;;5032256;28;20305;-72
2022/08/07 02:27:32;;;;;;;7.20;5.00;;;;;;;;;;5034178;28;20233;-72
2022/08/07 02:30:00;;;;;;;5.50;4.60;;;;;;;;;;5033792;28;20199;-72
2022/08/07 02:32:27;;;;;;;5.20;4.70;;;;;;;;;;5032521;28;20179;-72
2022/08/07 02:34:54;;;;;;;6.00;4.93;;;;;;;;;;5034090;28;20671;-73
2022/08/07 02:37:21;;;;;;;6.23;4.30;;;;;;;;;;5033842;28;20595;-72
2022/08/07 02:39:48;;;;;;;4.40;4.00;;;;;;;;;;5033736;28;20234;-72
2022/08/07 02:42:15;;;;;;;4.10;3.40;;;;;;;;;;5032360;28;20669;-73
2022/08/07 02:44:43;;;;;;;5.03;4.17;;;;;;;;;;5034143;28;20207;-72
2022/08/07 02:47:10;;;;;;;7.07;4.60;;;;;;;;;;5032357;28;20187;-72
2022/08/07 02:49:36;;;;;;;5.63;4.43;;;;;;;;;;5032181;28;20237;-72
2022/08/07 02:52:04;;;;;;;6.17;4.67;;;;;;;;;;5033446;28;20183;-73
2022/08/07 02:54:31;;;;;;;6.83;4.73;;;;;;;;;;5032056;28;20204;-72
2022/08/07 02:57:00;;;;;;;6.30;4.57;;;;;;;;;;5033801;28;20179;-72
2022/08/07 02:59:27;;;;;;;5.93;4.70;;;;;;;;;;5032162;28;20189;-72
2022/08/07 03:01:53;;;;;;;6.40;4.50;;;;;;;;;;5032190;28;20190;-72
2022/08/07 03:04:20;;;;;;;4.87;4.30;;;;;;;;;;5033364;28;20183;-72
2022/08/07 03:06:47;;;;;;;4.77;4.27;;;;;;;;;;5033416;28;20558;-73
2022/08/07 03:09:14;;;;;;;6.27;4.93;;;;;;;;;;5032068;28;20209;-72
2022/08/07 03:11:40;;;;;;;5.97;4.80;;;;;;;;;;5031966;28;20175;-73
2022/08/07 03:14:06;;;;;;;6.10;4.57;;;;;;;;;;5033353;28;20191;-72
2022/08/07 03:16:33;;;;;;;5.40;4.90;;;;;;;;;;5033331;28;20186;-73
2022/08/07 03:18:59;;;;;;;5.03;4.60;;;;;;;;;;5032160;28;20187;-72
2022/08/07 03:21:26;;;;;;;6.47;4.67;;;;;;;;;;5033245;28;20179;-72
2022/08/07 03:23:54;;;;;;;5.33;4.50;;;;;;;;;;5033404;28;20183;-72
2022/08/07 03:26:23;;;;;;;6.03;4.93;;;;;;;;;;5033528;28;20199;-74
2022/08/07 03:28:49;;;;;;;7.67;5.23;;;;;;;;;;5032909;28;20203;-73
2022/08/07 03:31:17;;;;;;;6.67;5.10;;;;;;;;;;5033399;28;20174;-73
2022/08/07 03:33:45;;;;;;;5.13;4.43;;;;;;;;;;5032154;28;20175;-73
2022/08/07 03:36:15;;;;;;;8.80;4.83;;;;;;;;;;5035825;28;20203;-72
2022/08/07 03:38:41;;;;;;;8.07;5.27;;;;;;;;;;5037285;28;20186;-72
2022/08/07 03:41:08;;;;;;;7.73;4.80;;;;;;;;;;5036510;28;20670;-72
2022/08/07 03:43:35;;;;;;;7.13;5.10;;;;;;;;;;5037595;28;20558;-72
2022/08/07 03:46:05;;;;;;;5.20;4.60;;;;;;;;;;5037472;28;20207;-73
2022/08/07 03:48:32;;;;;;;10.07;4.87;;;;;;;;;;5036962;28;20249;-72
2022/08/07 03:50:58;;;;;;;8.07;5.33;;;;;;;;;;5036643;28;20176;-72
2022/08/07 03:53:25;;;;;;;6.23;5.07;;;;;;;;;;5037321;28;20183;-73
2022/08/07 03:55:51;;;;;;;7.10;4.50;;;;;;;;;;5035561;28;20261;-72
2022/08/07 03:58:20;;;;;;;8.23;5.13;;;;;;;;;;5037007;28;20182;-72
2022/08/07 04:00:48;;;;;;;6.90;5.00;;;;;;;;;;5035493;28;20674;-72
2022/08/07 04:03:15;;;;;;;7.97;5.13;;;;;;;;;;5036623;28;20207;-72
2022/08/07 04:05:41;;;;;;;5.90;5.37;;;;;;;;;;5036501;28;20195;-72
2022/08/07 04:08:10;;;;;;;7.70;5.10;;;;;;;;;;5034919;28;20179;-72
2022/08/07 04:10:36;;;;;;;5.93;5.33;;;;;;;;;;5035198;28;20237;-73
2022/08/07 04:13:02;;;;;;;7.40;4.73;;;;;;;;;;5035403;28;20187;-72
2022/08/07 04:15:28;;;;;;;6.70;5.33;;;;;;;;;;5035591;28;20237;-72
2022/08/07 04:17:55;;;;;;;5.80;5.00;;;;;;;;;;5035332;28;20237;-72
2022/08/07 04:20:21;;;;;;;7.13;4.90;;;;;;;;;;5036273;28;20175;-72
2022/08/07 04:22:48;;;;;;;9.70;5.20;;;;;;;;;;5036226;28;20180;-72
2022/08/07 04:25:14;;;;;;;9.33;5.27;;;;;;;;;;5034901;28;20203;-72
2022/08/07 04:27:40;;;;;;;7.37;5.10;;;;;;;;;;5034988;28;20236;-70
2022/08/07 04:30:07;;;;;;;5.70;5.10;;;;;;;;;;5034914;28;20210;-72
2022/08/07 04:32:33;;;;;;;5.73;5.03;;;;;;;;;;5035847;28;20206;-72
2022/08/07 04:35:00;;;;;;;6.97;5.40;;;;;;;;;;5036177;28;20215;-72
2022/08/07 04:37:26;;;;;;;7.10;4.93;;;;;;;;;;5034876;28;20202;-72
2022/08/07 04:39:52;;;;;;;7.23;5.40;;;;;;;;;;5036256;28;20183;-72
2022/08/07 04:42:19;;;;;;;9.07;5.20;;;;;;;;;;5036369;28;20528;-72
2022/08/07 04:44:45;;;;;;;7.67;5.07;;;;;;;;;;5037321;28;20210;-73
2022/08/07 04:47:13;;;;;;;6.93;4.83;;;;;;;;;;5034559;28;20186;-72
2022/08/07 04:49:42;;;;;;;6.97;4.97;;;;;;;;;;5034745;28;20261;-72
2022/08/07 04:52:26;;;;;;;7.83;5.23;;;;;;;;;;5034626;28;20237;-72
2022/08/07 04:55:13;;;;;;;5.80;5.20;;;;;;;;;;5034438;28;20238;-72
2022/08/07 04:57:46;;;;;;;6.50;5.73;;;;;;;;;;5034888;28;20179;-73
2022/08/07 05:00:17;;;;;;;5.67;4.83;;;;;;;;;;5035413;28;20171;-73
2022/08/07 05:02:52;;;;;;;6.07;4.67;;;;;;;;;;5035346;28;20183;-73
2022/08/07 05:05:36;;;;;;;7.20;5.00;;;;;;;;;;5035478;28;20202;-73
2022/08/07 05:08:05;;;;;;;6.83;4.90;;;;;;;;;;5033818;28;20231;-72
2022/08/07 05:10:31;;;;;;;5.40;4.90;;;;;;;;;;5033891;28;20234;-73
2022/08/07 05:13:04;;;;;;;6.40;5.20;;;;;;;;;;5034356;28;20186;-73
2022/08/07 05:15:34;;;;;;;10.53;4.83;;;;;;;;;;5035128;28;20589;-73
2022/08/07 05:18:08;;;;;;;5.97;4.60;;;;;;;;;;5034031;28;20179;-73
2022/08/07 05:20:39;;;;;;;5.57;4.80;;;;;;;;;;5033813;28;20568;-73
2022/08/07 05:23:10;;;;;;;5.87;4.77;;;;;;;;;;5034248;28;20654;-72
2022/08/07 05:25:37;;;;;;;11.23;5.43;;;;;;;;;;5034897;28;20199;-73
2022/08/07 05:28:04;;;;;;;10.87;5.90;;;;;;;;;;5034999;28;20203;-73
2022/08/07 05:30:30;;;;;;;6.87;4.90;;;;;;;;;;5034196;28;20199;-73
2022/08/07 05:32:57;;;;;;;5.23;4.33;;;;;;;;;;5033689;28;20187;-73
2022/08/07 05:35:23;;;;;;;9.10;5.00;;;;;;;;;;5035168;28;20264;-72
2022/08/07 05:37:50;;;;;;;5.53;4.43;;;;;;;;;;5034046;28;20179;-74
2022/08/07 05:40:16;;;;;;;6.27;4.80;;;;;;;;;;5033974;28;20201;-72
2022/08/07 05:42:43;;;;;;;5.77;4.20;;;;;;;;;;5034117;28;20561;-73
2022/08/07 05:45:09;;;;;;;4.70;4.17;;;;;;;;;;5033993;28;20671;-73
2022/08/07 05:47:36;;;;;;;5.50;4.23;;;;;;;;;;5035015;28;20209;-73
2022/08/07 05:50:02;;;;;;;5.07;4.37;;;;;;;;;;5036216;28;20266;-72
2022/08/07 05:52:28;;;;;;;4.93;4.07;;;;;;;;;;5035265;28;20252;-72
2022/08/07 05:54:54;;;;;;;7.07;4.50;;;;;;;;;;5035878;28;20202;-73
2022/08/07 05:57:21;;;;;;;5.87;4.77;;;;;;;;;;5034671;28;20182;-73
2022/08/07 05:59:47;;;;;;;6.13;4.50;;;;;;;;;;5035327;28;20274;-72
2022/08/07 06:02:15;;;;;;;6.93;5.63;;;;;;;;;;5034661;28;20232;-73
2022/08/07 06:04:45;;;;;;;6.60;5.50;;;;;;;;;;5035399;28;20219;-73
2022/08/07 06:07:11;;;;;;;7.43;5.37;;;;;;;;;;5035591;28;20168;-72
2022/08/07 06:09:37;;;;;;;8.93;5.53;;;;;;;;;;5035720;28;20229;-72
2022/08/07 06:12:04;;;;;;;7.10;5.63;;;;;;;;;;5034477;28;20281;-72
2022/08/07 06:14:30;;;;;;;9.43;6.30;;;;;;;;;;5034883;28;20226;-72
2022/08/07 06:16:56;;;;;;;10.13;6.50;;;;;;;;;;5033353;28;20217;-72
2022/08/07 06:19:22;;;;;;;8.90;5.43;;;;;;;;;;5034769;28;20179;-73
2022/08/07 06:21:49;;;;;;;6.97;5.23;;;;;;;;;;5034899;28;20183;-73
2022/08/07 06:24:15;;;;;;;7.17;5.00;;;;;;;;;;5033482;28;20193;-72
2022/08/07 06:26:41;;;;;;;7.50;5.10;;;;;;;;;;5034603;28;20597;-73
2022/08/07 06:29:08;;;;;;;6.30;4.40;;;;;;;;;;5033348;28;20203;-73
2022/08/07 06:31:34;;;;;;;8.23;4.57;;;;;;;;;;5033200;28;20557;-73
2022/08/07 06:34:01;;;;;;;10.03;4.60;;;;;;;;;;5033065;28;20179;-73
2022/08/07 06:36:27;;;;;;;7.10;4.20;;;;;;;;;;5033210;28;20563;-72
2022/08/07 06:38:53;;;;;;;7.23;4.00;;;;;;;;;;5042852;28;20203;-72
2022/08/07 06:41:25;;;;;;;5.97;3.57;;;;;;;;;;5034593;28;20718;-72
2022/08/07 06:43:51;;;;;;;5.87;4.17;;;;;;;;;;5033827;28;20189;-73
2022/08/07 06:46:17;;;;;;;6.73;4.33;;;;;;;;;;5033740;28;20205;-73
2022/08/07 06:48:43;;;;;;;5.73;4.30;;;;;;;;;;5033713;28;20205;-73
2022/08/07 06:51:10;;;;;;;5.60;4.10;;;;;;;;;;5032559;28;20175;-73
2022/08/07 06:53:38;;;;;;;6.53;4.00;;;;;;;;;;5032545;28;20179;-73
2022/08/07 06:56:05;;;;;;;7.07;4.97;;;;;;;;;;5033808;28;20203;-74
2022/08/07 06:58:34;;;;;;;8.03;4.50;;;;;;;;;;5034318;28;20266;-73
2022/08/07 07:01:01;;;;;;;7.27;4.70;;;;;;;;;;5032490;28;20181;-72
2022/08/07 07:03:27;;;;;;;8.03;4.50;;;;;;;;;;5033756;28;20171;-73
2022/08/07 07:05:53;;;;;;;8.67;4.07;;;;;;;;;;5033937;28;20202;-73
2022/08/07 07:08:24;;;;;;;6.37;4.13;;;;;;;;;;5033623;28;20182;-73
2022/08/07 07:10:50;;;;;;;5.77;4.73;;;;;;;;;;5034624;28;20639;-74
2022/08/07 07:13:18;;;;;;;6.07;4.30;;;;;;;;;;5036139;28;20179;-73
2022/08/07 07:15:48;;;;;;;12.83;5.77;;;;;;;;;;5037412;28;20655;-74
2022/08/07 07:18:28;;;;;;;10.43;5.60;;;;;;;;;;5036079;28;20182;-72
2022/08/07 07:21:00;;;;;;;8.67;4.43;;;;;;;;;;5036332;28;20703;-74
2022/08/07 07:23:28;;;;;;;9.40;4.87;;;;;;;;;;5037308;28;20258;-72
2022/08/07 07:25:58;;;;;;;9.20;4.90;;;;;;;;;;5036273;28;20228;-73
2022/08/07 07:28:27;;;;;;;8.60;4.23;;;;;;;;;;5037274;28;20221;-73
2022/08/07 07:30:56;;;;;;;6.67;3.20;;;;;;;;;;5037532;28;20225;-72
2022/08/07 07:33:23;;;;;;;4.27;2.93;;;;;;;;;;5036010;28;20179;-73
2022/08/07 07:35:50;;;;;;;5.43;2.90;;;;;;;;;;5035716;28;20230;-72
2022/08/07 07:38:18;;;;;;;3.73;2.30;;;;;;;;;;5035741;28;20179;-72
2022/08/07 07:40:45;;;;;;;5.23;3.20;;;;;;;;;;5035871;28;20182;-72
2022/08/07 07:43:11;;;;;;;5.63;2.80;;;;;;;;;;5036999;28;20175;-72
2022/08/07 07:45:38;;;;;;;5.63;2.47;;;;;;;;;;5037038;28;20198;-72
2022/08/07 07:48:05;;;;;;;4.67;2.60;;;;;;;;;;5037019;28;20182;-73
2022/08/07 07:50:31;;;;;;;4.93;2.50;;;;;;;;;;5035721;28;20556;-73
2022/08/07 07:52:58;;;;;;;3.80;2.50;;;;;;;;;;5036507;28;20639;-73
2022/08/07 07:55:26;;;;;;;3.10;2.60;;;;;;;;;;5036933;28;20795;-73
2022/08/07 07:57:53;;;;;;;5.37;2.83;;;;;;;;;;5037632;28;20654;-73
2022/08/07 08:00:19;;;;;;;3.57;2.63;;;;;;;;;;5036969;28;20228;-73
2022/08/07 08:02:47;;;;;;;4.60;2.90;;;;;;;;;;5051220;22;20230;-67
2022/08/07 08:05:15;;;;;;;4.27;2.60;;;;;;;;;;5035978;28;20179;-68
2022/08/07 08:07:42;;;;;;;3.17;2.57;;;;;;;;;;5034785;28;20204;-68
2022/08/07 08:10:09;;;;;;;4.87;3.20;;;;;;;;;;5034323;28;20210;-69
2022/08/07 08:12:35;;;;;;;4.17;2.60;;;;;;;;;;5035609;28;20198;-68
2022/08/07 08:15:02;;;;;;;4.07;2.90;;;;;;;;;;5035731;28;20678;-69
2022/08/07 08:17:28;;;;;;;4.37;2.37;;;;;;;;;;5034313;28;20270;-69
2022/08/07 08:20:01;;;;;;;5.03;3.13;;;;;;;;;;5035782;28;20184;-69
2022/08/07 08:27:59;;;;;;;1.57;1.47;;;;;;;;;;5036074;28;20185;-69
2022/08/07 08:30:27;;;;;;;1.07;1.03;;;;;;;;;;5035540;28;20229;-69
2022/08/07 08:32:53;;;;;;;1.40;1.27;;;;;;;;;;5034052;28;20206;-68
2022/08/07 08:35:22;;;;;;;1.37;1.27;;;;;;;;;;5035364;28;20179;-69
2022/08/07 08:37:50;;;;;;;4.50;1.30;;;;;;;;;;5034254;28;20187;-69
2022/08/07 08:40:25;;;;;;;4.13;1.30;;;;;;;;;;5034117;28;20225;-69
2022/08/07 08:42:59;;;;;;;1.30;1.10;;;;;;;;;;5035220;28;20198;-68
2022/08/07 08:45:31;;;;;;;1.20;1.20;;;;;;;;;;5035286;28;20163;-69
2022/08/07 08:48:09;;;;;;;1.80;1.43;;;;;;;;;;5035345;28;20160;-68
2022/08/07 08:50:55;;;;;;;2.33;1.30;;;;;;;;;;5033838;28;20294;-69
2022/08/07 08:53:21;;;;;;;3.83;1.53;;;;;;;;;;5035014;28;20280;-69
2022/08/07 08:55:52;;;;;;;1.63;1.30;;;;;;;;;;5035361;28;20231;-69
2022/08/07 08:58:27;;;;;;;1.87;1.50;;;;;;;;;;5035162;28;20245;-68
2022/08/07 09:00:56;;;;;;;1.87;1.67;;;;;;;;;;5033668;28;20185;-69
2022/08/07 09:03:25;;;;;;;3.40;1.40;;;;;;;;;;5034847;28;20218;-69
2022/08/07 09:06:05;;;;;;;1.43;1.20;;;;;;;;;;5034980;28;20179;-69
2022/08/07 09:08:40;;;;;;;1.20;1.10;;;;;;;;;;5035153;28;20155;-69
2022/08/07 09:11:13;;;;;;;1.40;1.20;;;;;;;;;;5034043;28;20262;-69
2022/08/07 09:13:45;;;;;;;2.10;1.10;;;;;;;;;;5033351;28;20302;-69
2022/08/07 09:16:17;;;;;;;2.00;1.40;;;;;;;;;;5035177;28;20156;-69
2022/08/07 09:19:02;;;;;;;2.10;1.50;;;;;;;;;;5033218;28;20183;-69
2022/08/07 09:21:31;;;;;;;1.60;1.40;;;;;;;;;;5034714;28;20183;-69
2022/08/07 09:24:14;;;;;;;2.27;1.70;;;;;;;;;;5034476;28;20211;-68
2022/08/07 09:26:46;;;;;;;3.40;1.60;;;;;;;;;;5035015;28;20184;-68
2022/08/07 09:29:17;;;;;;;2.37;1.60;;;;;;;;;;5034296;28;20202;-68
2022/08/07 09:31:50;;;;;;;1.53;1.43;;;;;;;;;;5034429;28;20160;-68
2022/08/07 09:34:29;;;;;;;3.90;1.70;;;;;;;;;;5032801;28;20191;-69
2022/08/07 09:37:00;;;;;;;4.07;1.60;;;;;;;;;;5032966;28;20558;-69
2022/08/07 09:39:26;;;;;;;1.33;1.23;;;;;;;;;;5034355;28;20178;-69
2022/08/07 09:42:13;;;;;;;2.10;1.03;;;;;;;;;;5034374;28;20175;-69
2022/08/07 09:44:48;;;;;;;2.40;1.40;;;;;;;;;;5016582;28;20175;-68
2022/08/07 09:47:32;;;;;;;3.07;1.30;;;;;;;;;;5034000;28;20179;-68
2022/08/07 09:50:06;;;;;;;4.87;1.40;;;;;;;;;;5033890;28;20206;-69
2022/08/07 09:52:50;;;;;;;3.57;1.30;;;;;;;;;;5032673;28;20214;-68
2022/08/07 09:55:19;;;;;;;4.07;1.73;;;;;;;;;;5033736;28;20175;-68
2022/08/07 09:57:51;;;;;;;4.73;1.37;;;;;;;;;;5034061;28;20179;-69
2022/08/07 10:00:21;;;;;;;4.80;2.30;;;;;;;;;;5033791;28;20175;-69
2022/08/07 10:02:50;;;;;;;2.63;2.10;;;;;;;;;;5032242;28;20218;-69
2022/08/07 10:05:35;;;;;;;1.60;1.50;;;;;;;;;;5033712;28;20182;-69
2022/08/07 10:08:19;;;;;;;2.33;1.80;;;;;;;;;;5033625;28;20175;-68
2022/08/07 10:10:58;;;;;;;3.90;1.90;;;;;;;;;;5032333;28;20218;-69
2022/08/07 10:13:27;;;;;;;3.77;1.63;;;;;;;;;;5033444;28;20195;-68
2022/08/07 10:16:05;;;;;;;3.47;1.80;;;;;;;;;;5033792;28;20171;-69
2022/08/07 10:18:52;;;;;;;2.23;1.50;;;;;;;;;;5032309;28;20183;-68
2022/08/07 10:21:36;;;;;;;3.60;1.60;;;;;;;;;;5032243;28;20180;-69
2022/08/07 10:24:22;;;;;;;2.50;1.50;;;;;;;;;;5032182;28;20565;-69
2022/08/07 10:26:53;;;;;;;2.03;1.17;;;;;;;;;;5032306;28;20175;-68
2022/08/07 10:29:25;;;;;;;1.33;1.23;;;;;;;;;;5033563;28;20655;-68
2022/08/07 10:31:57;;;;;;;2.67;1.40;;;;;;;;;;5033217;28;20287;-68
2022/08/07 10:34:42;;;;;;;2.43;1.60;;;;;;;;;;5033175;28;20187;-68
2022/08/07 10:37:23;;;;;;;2.70;1.90;;;;;;;;;;5032262;28;20206;-69
2022/08/07 10:39:52;;;;;;;2.13;1.20;;;;;;;;;;5031847;28;20663;-68
2022/08/07 10:42:18;;;;;;;1.20;1.10;;;;;;;;;;5033102;28;20258;-68
2022/08/07 10:44:52;;;;;;;1.60;1.33;;;;;;;;;;5032632;28;20182;-68
2022/08/07 10:47:28;;;;;;;1.67;1.53;;;;;;;;;;5031927;28;20183;-69
2022/08/07 10:49:54;;;;;;;2.00;1.40;;;;;;;;;;5031702;28;20206;-68
2022/08/07 10:52:23;;;;;;;3.33;1.60;;;;;;;;;;5033250;28;20249;-68
2022/08/07 10:54:56;;;;;;;2.93;1.50;;;;;;;;;;5033014;28;20254;-68
2022/08/07 10:57:26;;;;;;;2.23;1.50;;;;;;;;;;5033241;28;20643;-68
2022/08/07 10:59:52;;;;;;;1.70;1.40;;;;;;;;;;5033004;28;20179;-68
2022/08/07 11:02:29;;;;;;;5.83;1.60;;;;;;;;;;5032988;28;20244;-68
2022/08/07 11:04:58;;;;;;;2.83;1.70;;;;;;;;;;5031561;28;20658;-68
2022/08/07 11:07:40;;;;;;;6.60;2.40;;;;;;;;;;5031520;28;20190;-68
2022/08/07 11:10:12;;;;;;;5.17;1.63;;;;;;;;;;5032703;28;20257;-68
2022/08/07 11:12:44;;;;;;;3.00;1.77;;;;;;;;;;5033093;28;20664;-68
2022/08/07 11:15:17;;;;;;;3.73;1.57;;;;;;;;;;5032895;28;20233;-68
2022/08/07 11:17:45;;;;;;;2.20;1.53;;;;;;;;;;5033148;28;20172;-68
2022/08/07 11:20:25;;;;;;;2.73;2.00;;;;;;;;;;5031632;28;20702;-68
2022/08/07 11:23:06;;;;;;;3.30;1.37;;;;;;;;;;5031496;28;20210;-68
2022/08/07 11:25:35;;;;;;;3.97;1.33;;;;;;;;;;5033090;28;20163;-68
2022/08/07 11:28:31;;;;;;;1.20;1.10;;;;;;;;;;5032849;28;20183;-68
2022/08/07 11:31:06;;;;;;;2.70;1.50;;;;;;;;;;5024111;28;20195;-68
2022/08/07 11:33:42;;;;;;;1.57;1.33;;;;;;;;;;5032821;28;20240;-68
2022/08/07 11:36:30;;;;;;;1.47;1.10;;;;;;;;;;5031734;28;20175;-68
2022/08/07 11:39:20;;;;;;;1.67;1.53;;;;;;;;;;5035113;28;20617;-69
2022/08/07 11:41:51;;;;;;;7.77;5.10;;;;;;;;;;5035130;28;20254;-68
2022/08/07 11:44:39;;;;;;;4.03;2.87;;;;;;;;;;5034833;28;20253;-68
2022/08/07 11:47:12;;;;;;;4.13;2.17;;;;;;;;;;5035320;28;20246;-68
2022/08/07 11:50:00;;;;;;;3.80;1.50;;;;;;;;;;5032849;28;20310;-68
2022/08/07 11:52:26;;;;;;;4.00;1.40;;;;;;;;;;5031478;28;20203;-68
2022/08/07 11:55:11;;;;;;;1.40;1.30;;;;;;;;;;5032777;28;20648;-68
2022/08/07 11:57:42;;;;;;;2.20;1.50;;;;;;;;;;5034735;28;20198;-69
2022/08/07 12:00:10;;;;;;;2.23;1.20;;;;;;;;;;5034848;28;20647;-68
2022/08/07 12:02:51;;;;;;;3.43;1.20;;;;;;;;;;5034508;28;20221;-68
2022/08/07 12:05:23;;;;;;;1.40;1.30;;;;;;;;;;5035930;28;20262;-67
2022/08/07 12:07:59;;;;;;;1.73;1.30;;;;;;;;;;5035956;28;20652;-68
2022/08/07 12:10:28;;;;;;;1.40;1.30;;;;;;;;;;5034610;28;20207;-68
2022/08/07 12:13:02;;;;;;;4.70;1.50;;;;;;;;;;5035999;28;20198;-68
2022/08/07 12:15:33;;;;;;;2.27;1.40;;;;;;;;;;5034566;28;20198;-68
2022/08/07 12:18:04;;;;;;;2.17;1.60;;;;;;;;;;5035094;28;20225;-68
2022/08/07 12:20:33;;;;;;;2.47;1.40;;;;;;;;;;5035817;28;20156;-68
2022/08/07 12:23:11;;;;;;;1.13;1.10;;;;;;;;;;5035529;28;20572;-67
2022/08/07 12:25:52;;;;;;;1.80;1.57;;;;;;;;;;5035722;28;20227;-68
2022/08/07 12:28:30;;;;;;;2.10;1.70;;;;;;;;;;5035751;28;20163;-68
2022/08/07 12:30:58;;;;;;;1.70;1.60;;;;;;;;;;5034055;28;20190;-67
2022/08/07 12:33:27;;;;;;;5.30;2.00;;;;;;;;;;5035255;28;20555;-67
2022/08/07 12:35:54;;;;;;;2.67;1.80;;;;;;;;;;5034039;28;20221;-66
2022/08/07 12:38:20;;;;;;;2.70;1.77;;;;;;;;;;5035280;28;20171;-67
2022/08/07 12:40:47;;;;;;;2.47;1.63;;;;;;;;;;5033945;28;20182;-68
2022/08/07 12:43:15;;;;;;;2.53;1.80;;;;;;;;;;5035038;28;20687;-67
2022/08/07 12:45:53;;;;;;;3.10;1.50;;;;;;;;;;5035455;28;20189;-67
2022/08/07 12:48:22;;;;;;;2.67;1.53;;;;;;;;;;5035218;28;20163;-68
2022/08/07 12:50:53;;;;;;;3.33;1.40;;;;;;;;;;5033840;28;20682;-68
2022/08/07 12:53:19;;;;;;;2.57;1.30;;;;;;;;;;5035155;28;20671;-67
2022/08/07 12:55:57;;;;;;;1.33;1.23;;;;;;;;;;5033655;28;20194;-67
2022/08/07 12:58:27;;;;;;;4.80;1.30;;;;;;;;;;5034929;28;20175;-68
2022/08/07 13:00:59;;;;;;;3.03;1.30;;;;;;;;;;5033402;28;20186;-67
2022/08/07 13:03:44;;;;;;;1.50;1.27;;;;;;;;;;5033236;28;20211;-67
2022/08/07 13:06:29;;;;;;;3.23;1.30;;;;;;;;;;5033500;28;20190;-67
2022/08/07 13:08:59;;;;;;;2.80;1.37;;;;;;;;;;5032918;28;20206;-67
2022/08/07 13:11:33;;;;;;;1.63;1.30;;;;;;;;;;5033460;28;20186;-67
2022/08/07 13:14:07;;;;;;;2.53;1.50;;;;;;;;;;5033411;28;20244;-68
2022/08/07 13:16:36;;;;;;;1.33;1.20;;;;;;;;;;5034862;28;20284;-67
2022/08/07 13:19:09;;;;;;;1.40;1.30;;;;;;;;;;5039473;28;20689;-67
2022/08/07 13:21:41;;;;;;;1.43;1.20;;;;;;;;;;5036423;28;20594;-67
2022/08/07 13:24:07;;;;;;;1.40;1.30;;;;;;;;;;5034377;28;20278;-67
2022/08/07 13:26:45;;;;;;;3.60;1.67;;;;;;;;;;5034263;28;20228;-67
2022/08/07 13:29:24;;;;;;;3.33;1.40;;;;;;;;;;5034242;28;20206;-67
2022/08/07 13:31:58;;;;;;;2.03;1.30;;;;;;;;;;5034519;28;20178;-67
2022/08/07 13:34:35;;;;;;;2.03;1.20;;;;;;;;;;5034243;28;20202;-67
2022/08/07 13:37:10;;;;;;;1.93;1.53;;;;;;;;;;5033468;28;20290;-68
2022/08/07 13:39:43;;;;;;;1.63;1.53;;;;;;;;;;5032819;28;20179;-67
2022/08/07 13:42:13;;;;;;;1.77;1.40;;;;;;;;;;5034573;28;20225;-67
2022/08/07 13:44:39;;;;;;;1.73;1.43;;;;;;;;;;5032489;28;20206;-67
2022/08/07 13:47:06;;;;;;;2.20;1.50;;;;;;;;;;5032731;28;20237;-67
2022/08/07 13:49:34;;;;;;;2.13;1.77;;;;;;;;;;5033917;28;20218;-68
2022/08/07 13:52:05;;;;;;;1.83;1.57;;;;;;;;;;5034119;28;20638;-67
2022/08/07 13:54:32;;;;;;;2.73;1.60;;;;;;;;;;5033746;28;20254;-67
2022/08/07 13:56:59;;;;;;;2.30;2.00;;;;;;;;;;5034157;28;20026;-68
2022/08/07 13:59:29;;;;;;;2.20;1.27;;;;;;;;;;5033718;28;20202;-68
2022/08/07 14:01:56;;;;;;;5.23;1.70;;;;;;;;;;5033974;28;20269;-67
2022/08/07 14:04:24;;;;;;;3.20;1.60;;;;;;;;;;5031052;28;20399;-67
2022/08/07 14:06:51;;;;;;;2.72;1.70;;;;;;;;;;5032363;28;20564;-67
2022/08/07 14:09:20;;;;;;;1.45;1.35;;;;;;;;;;5033844;28;20202;-68
2022/08/07 14:11:48;;;;;;;1.90;1.63;;;;;;;;;;5033845;28;20167;-68
2022/08/07 14:14:15;;;;;;;1.63;1.52;;;;;;;;;;5033504;28;20195;-67
2022/08/07 14:16:42;;;;;;;2.40;1.87;;;;;;;;;;5033333;28;20643;-68
2022/08/07 14:19:18;;;;;;;3.40;1.50;;;;;;;;;;5033262;28;20183;-67
2022/08/07 14:21:47;;;;;;;3.17;1.90;;;;;;;;;;5033277;28;20211;-68
2022/08/07 14:24:21;;;;;;;2.10;1.70;;;;;;;;;;5033363;28;20282;-68
2022/08/07 14:26:52;;;;;;;3.70;1.77;;;;;;;;;;5033301;28;20186;-68
2022/08/07 14:29:20;;;;;;;1.88;1.63;;;;;;;;;;5033254;28;20198;-68
2022/08/07 14:31:47;;;;;;;2.72;1.88;;;;;;;;;;5033252;28;20175;-68
2022/08/07 14:34:13;;;;;;;2.38;1.50;;;;;;;;;;5032003;28;20249;-68
2022/08/07 14:36:40;;;;;;;1.77;1.60;;;;;;;;;;5031907;28;20183;-68
2022/08/07 14:39:06;;;;;;;2.47;1.52;;;;;;;;;;5033282;28;20258;-68
2022/08/07 14:41:33;;;;;;;1.70;1.60;;;;;;;;;;5033142;28;20175;-67
2022/08/07 14:44:01;;;;;;;2.35;1.58;;;;;;;;;;5031787;28;20226;-68
2022/08/07 14:46:28;;;;;;;2.65;1.77;;;;;;;;;;5033112;28;20171;-67
2022/08/07 14:48:55;;;;;;;1.65;1.55;;;;;;;;;;5031823;28;20802;-67
2022/08/07 14:51:26;;;;;;;2.55;1.40;;;;;;;;;;5031794;28;20183;-68
2022/08/07 14:53:52;;;;;;;2.03;1.73;;;;;;;;;;5031720;28;20195;-68
2022/08/07 14:56:21;;;;;;;3.00;1.67;;;;;;;;;;5032968;28;20174;-68
2022/08/07 14:58:49;;;;;;;1.80;1.50;;;;;;;;;;5033303;28;20174;-68
2022/08/07 15:01:16;;;;;;;3.10;1.85;;;;;;;;;;5033289;28;20183;-68
2022/08/07 15:03:43;;;;;;;2.22;1.55;;;;;;;;;;5032854;28;20206;-68